Latest Weather Observations for Learmonth

IDW60801

Issued at 10:32 am WST Friday 31 July 2015 (issued every 30 minutes, with the page automatically refreshed every 10 minutes)

About weather observations | Map of weather stations | Latest weather observations for WA | Other Formats
Station Details ID: 005007 Name: LEARMONTH AIRPORT Lat: -22.24 Lon: 114.10 Height: 5.0 m
Data from the previous 72 hours. | See also: Recent months at Learmonth
Date/Time
WST
Temp
°C
App
Temp
°C
Dew
Point
Rel
Hum
%
Delta-T
°C
Wind Press
QNH
hPa
Press
MSL
hPa
Rain
since 9 am
mm
Dir
 
Spd
km/h
Gust
km/h
Spd
kts
Gust
kts
31/10:30am 22.8 24.2 18.7 77 2.6 ENE 9 13 5 7 1018.0 - 0.0
31/10:00am 21.6 22.9 18.4 82 2.0 E 9 11 5 6 1018.1 - 0.0
31/09:30am 20.9 22.6 18.5 86 1.5 ENE 7 11 4 6 1018.1 - 0.0
31/09:22am 21.0 22.9 18.9 88 1.3 ENE 7 9 4 5 1018.1 - 0.0
31/09:20am 20.8 22.8 19.1 90 1.1 NE 7 9 4 5 1018.1 - 0.0
31/09:00am 19.8 23.0 18.8 94 0.6 CALM 0 - 0 - 1018.0 1017.9 0.0
31/08:42am 19.0 22.0 18.4 96 0.4 CALM 0 - 0 - 1018.0 - 0.0
31/08:30am 18.6 21.4 17.9 96 0.4 CALM 0 4 0 2 1018.0 - 0.0
31/08:00am 17.6 20.0 16.9 96 0.4 CALM 0 - 0 - 1017.6 - 0.0
31/07:30am 16.5 17.2 15.6 94 0.5 SW 6 7 3 4 1017.3 - 0.0
31/07:00am 15.5 16.7 14.8 96 0.4 WSW 2 6 1 3 1017.0 - 0.0
31/06:47am 15.5 16.2 14.6 94 0.5 SW 4 7 2 4 1017.0 - 0.0
31/06:45am 15.3 15.6 14.6 96 0.4 SW 6 7 3 4 1017.0 - 0.0
31/06:30am 15.5 15.9 14.8 96 0.4 SW 6 9 3 5 1016.8 - 0.0
31/06:11am 15.4 15.1 14.5 94 0.5 SW 9 13 5 7 1016.7 - 0.0
31/06:10am 15.3 15.1 14.6 96 0.4 SW 9 13 5 7 1016.7 - 0.0
31/06:00am 15.1 15.4 14.4 96 0.4 WSW 6 15 3 8 1016.8 1016.7 0.0
31/05:30am 16.1 17.9 15.6 97 0.3 CALM 0 7 0 4 1016.3 - 0.0
31/05:24am 16.2 16.8 15.7 97 0.3 S 7 13 4 7 1016.3 - 0.0
31/05:07am 16.6 16.2 16.1 97 0.3 S 13 20 7 11 1016.4 - 0.0
31/05:00am 16.7 16.3 16.2 97 0.3 S 13 19 7 10 1016.5 - 0.0
31/04:30am 17.0 16.6 16.3 96 0.4 SSE 13 19 7 10 1016.6 - 0.0
31/04:06am 16.4 15.7 15.5 94 0.5 SSW 13 19 7 10 1016.7 - 0.0
31/04:02am 16.2 15.9 15.5 96 0.4 S 11 19 6 10 1016.6 - 0.0
31/04:00am 16.1 15.8 15.4 96 0.4 SSE 11 19 6 10 1016.7 - 0.0
31/03:30am 15.8 15.7 14.9 94 0.5 SW 9 13 5 7 1016.6 - 0.0
31/03:09am 15.0 14.5 13.9 93 0.6 S 9 15 5 8 1016.6 - 0.0
31/03:00am 14.6 14.4 13.5 93 0.6 S 7 9 4 5 1016.6 1016.5 0.0
31/02:30am 14.8 13.7 13.2 90 0.9 S 11 15 6 8 1016.7 - 0.0
31/02:00am 15.2 14.9 13.2 88 1.1 SSE 7 11 4 6 1017.1 - 0.0
31/01:30am 16.3 15.8 13.8 85 1.4 E 9 11 5 6 1017.3 - 0.0
31/01:00am 17.8 18.0 14.1 79 2.1 NE 6 9 3 5 1017.5 - 0.0
31/12:30am 19.1 19.0 14.0 72 2.9 N 7 9 4 5 1017.7 - 0.0
31/12:00am 18.7 19.8 14.5 76 2.4 N 2 7 1 4 1017.9 1017.8 0.0
 
Date/Time
WST
Temp
°C
App
Temp
°C
Dew
Point
Rel
Hum
%
Delta-T
°C
Wind Press
QNH
hPa
Press
MSL
hPa
Rain
since 9 am
mm
Dir
 
Spd
km/h
Gust
km/h
Spd
kts
Gust
kts
30/11:30pm 18.3 19.8 14.7 79 2.1 CALM 0 0 0 0 1018.3 - 0.0
30/11:00pm 18.1 19.7 15.0 82 1.8 CALM 0 6 0 3 1018.6 - 0.0
30/10:30pm 18.7 20.1 14.5 76 2.4 CALM 0 0 0 0 1018.8 - 0.0
30/10:00pm 19.8 19.6 13.7 68 3.5 W 7 9 4 5 1018.8 - 0.0
30/09:30pm 19.2 18.4 12.8 66 3.6 WSW 9 13 5 7 1019.0 - 0.0
30/09:00pm 19.2 18.2 13.4 69 3.3 WSW 11 19 6 10 1019.0 1018.9 0.0
30/08:30pm 19.0 20.0 16.8 87 1.3 W 7 11 4 6 1018.8 - 0.0
30/08:00pm 19.7 20.8 17.9 89 1.1 N 9 9 5 5 1018.6 - 0.0
30/07:30pm 20.2 21.2 17.8 86 1.5 N 9 11 5 6 1018.4 - 0.0
30/07:00pm 20.8 22.0 17.4 81 2.1 N 7 9 4 5 1018.1 - 0.0
30/06:30pm 21.3 22.2 16.7 75 2.8 N 7 9 4 5 1017.8 - 0.0
30/06:00pm 22.1 22.1 16.3 69 3.5 N 11 11 6 6 1017.6 1017.5 0.0
30/05:30pm 23.7 23.0 15.5 60 4.9 N 13 17 7 9 1017.4 - 0.0
30/05:00pm 25.2 23.9 13.8 49 6.7 N 13 17 7 9 1017.3 - 0.0
30/04:30pm 25.7 23.9 13.4 46 7.2 N 15 19 8 10 1017.4 - 0.0
30/04:00pm 25.6 22.4 11.9 42 7.8 N 20 26 11 14 1017.3 - 0.0
30/03:30pm 26.9 24.1 10.0 34 9.4 N 15 19 8 10 1017.3 - 0.0
30/03:00pm 26.8 21.7 3.0 21 11.7 NNE 19 22 10 12 1017.2 1017.1 0.0
30/02:30pm 27.3 24.4 9.8 33 9.7 NE 15 19 8 10 1017.2 - 0.0
30/02:00pm 26.9 24.7 10.7 36 9.1 NE 13 17 7 9 1017.3 - 0.0
30/01:30pm 26.8 25.1 11.3 38 8.8 NE 11 15 6 8 1017.7 - 0.0
30/01:00pm 25.6 23.9 12.6 44 7.5 ENE 13 17 7 9 1018.1 - 0.0
30/12:30pm 24.9 23.1 12.1 44 7.3 ENE 13 17 7 9 1018.5 - 0.0
30/12:00pm 25.3 22.8 11.0 40 8.0 E 15 17 8 9 1019.0 1018.9 0.0
30/11:30am 26.2 24.1 12.5 42 7.9 E 15 17 8 9 1019.2 - 0.0
30/11:00am 26.3 24.5 12.2 41 8.1 ESE 13 17 7 9 1019.6 - 0.0
30/10:30am 25.9 25.0 12.5 43 7.7 S 9 13 5 7 1020.0 - 0.0
30/10:00am 24.3 23.8 12.6 48 6.7 S 7 13 4 7 1020.2 - 0.0
30/09:30am 23.2 22.5 12.0 49 6.3 S 7 11 4 6 1020.1 - 0.0
30/09:00am 22.0 20.9 13.1 57 5.1 SW 11 15 6 8 1020.0 1019.9 0.0
30/08:30am 20.8 20.0 13.9 64 4.0 WSW 11 15 6 8 1019.7 - 0.0
30/08:00am 18.6 18.1 14.8 78 2.2 SW 11 13 6 7 1019.4 - 0.0
30/07:30am 16.4 15.0 13.5 83 1.6 WSW 13 13 7 7 1019.0 - 0.0
30/07:00am 16.1 15.2 13.6 85 1.4 SW 11 13 6 7 1018.8 - 0.0
30/06:30am 16.7 15.2 14.1 85 1.5 WSW 15 17 8 9 1018.6 - 0.0
30/06:00am 16.9 15.5 14.6 86 1.3 WSW 15 17 8 9 1018.5 1018.4 0.0
30/05:30am 16.9 15.6 14.8 87 1.2 WSW 15 17 8 9 1018.3 - 0.0
30/05:00am 16.8 15.5 14.9 88 1.1 WSW 15 15 8 8 1018.2 - 0.0
30/04:30am 16.3 15.2 14.2 87 1.2 SW 13 15 7 8 1018.2 - 0.0
30/04:00am 16.2 14.5 13.5 84 1.5 WSW 15 17 8 9 1018.4 - 0.0
30/03:30am 15.6 14.6 13.4 87 1.2 SW 11 13 6 7 1018.6 - 0.0
30/03:00am 16.7 15.6 14.2 85 1.4 WSW 13 13 7 7 1018.8 1018.7 0.0
30/02:30am 16.9 16.3 14.5 86 1.4 WSW 11 13 6 7 1018.9 - 0.0
30/02:00am 16.0 15.2 14.1 88 1.1 SW 11 13 6 7 1018.9 - 0.0
30/01:30am 15.8 15.6 13.5 86 1.3 SW 7 11 4 6 1019.0 - 0.0
30/01:00am 15.3 13.7 12.8 85 1.4 SW 13 13 7 7 1019.1 - 0.0
30/12:30am 15.5 14.7 12.8 84 1.5 SSW 9 11 5 6 1019.1 - 0.0
30/12:00am 16.3 14.7 12.9 80 1.9 SW 13 17 7 9 1019.2 1019.1 0.0
 
Date/Time
WST
Temp
°C
App
Temp
°C
Dew
Point
Rel
Hum
%
Delta-T
°C
Wind Press
QNH
hPa
Press
MSL
hPa
Rain
since 9 am
mm
Dir
 
Spd
km/h
Gust
km/h
Spd
kts
Gust
kts
29/11:30pm 16.5 15.8 13.1 80 1.9 SW 9 11 5 6 1019.3 - 0.0
29/11:00pm 16.9 16.3 13.5 80 1.9 SW 9 11 5 6 1019.2 - 0.0
29/10:30pm 16.9 15.2 13.5 80 1.9 SW 15 17 8 9 1019.2 - 0.0
29/10:00pm 17.0 16.0 13.4 79 2.0 SSW 11 13 6 7 1019.2 - 0.0
29/09:30pm 18.6 17.7 12.5 67 3.4 SW 9 13 5 7 1019.2 - 0.0
29/09:00pm 19.3 17.1 12.1 63 4.0 WSW 15 17 8 9 1019.2 1019.1 0.0
29/08:30pm 19.0 17.1 13.0 68 3.4 WSW 15 17 8 9 1019.3 - 0.0
29/08:00pm 19.7 17.1 12.1 61 4.2 SW 17 19 9 10 1019.1 - 0.0
29/07:30pm 19.6 17.5 11.0 57 4.7 WSW 13 17 7 9 1018.6 - 0.0
29/07:00pm 20.3 18.4 10.5 53 5.3 N 11 13 6 7 1018.2 - 0.0
29/06:30pm 21.7 18.4 9.6 46 6.5 N 17 17 9 9 1018.0 - 0.0
29/06:00pm 23.4 21.2 9.5 41 7.5 N 11 13 6 7 1018.0 1017.9 0.0
29/05:30pm 26.3 25.2 8.5 32 9.6 N 4 7 2 4 1018.1 - 0.0
29/05:00pm 27.5 24.7 5.3 24 11.4 NE 9 11 5 6 1018.0 - 0.0
29/04:30pm 28.1 25.0 5.5 23 11.7 NE 11 13 6 7 1017.9 - 0.0
29/04:00pm 28.5 25.4 3.6 20 12.5 ENE 9 13 5 7 1018.0 - 0.0
29/03:30pm 28.6 25.4 3.1 19 12.7 ENE 9 13 5 7 1017.9 - 0.0
29/03:00pm 28.8 25.5 4.6 21 12.4 ENE 11 13 6 7 1018.0 1017.9 0.0
29/02:30pm 28.8 25.9 4.9 22 12.3 ENE 9 11 5 6 1018.2 - 0.0
29/02:00pm 28.8 27.6 6.5 24 11.8 E 2 7 1 4 1018.5 - 0.0
29/01:30pm 28.1 25.7 7.0 26 11.2 ENE 9 13 5 7 1018.9 - 0.0
29/01:00pm 27.6 25.3 7.3 27 10.8 E 9 11 5 6 1019.2 - 0.0
29/12:30pm 27.3 25.6 8.2 30 10.3 ESE 7 13 4 7 1019.7 - 0.0
29/12:00pm 26.6 24.9 8.2 31 9.9 E 7 9 4 5 1020.2 1020.1 0.0
29/11:30am 25.8 24.4 9.6 36 8.9 E 7 11 4 6 1020.6 - 0.0
29/11:00am 24.8 23.9 11.5 43 7.5 E 7 11 4 6 1020.8 - 0.0
29/10:30am 23.9 24.3 12.5 49 6.5 SSE 2 7 1 4 1021.1 - 0.0
29/10:00am 22.5 23.2 13.3 56 5.3 SSE 2 9 1 5 1021.3 - 0.0
29/09:30am 21.4 22.1 14.6 65 4.0 SSE 4 7 2 4 1021.2 - 0.0
29/09:00am 19.9 21.0 13.4 66 3.7 CALM 0 0 0 0 1021.2 1021.1 0.0
29/08:30am 18.2 19.3 13.6 74 2.6 CALM 0 0 0 0 1020.8 - 0.0
29/08:00am 15.5 14.9 11.6 77 2.1 W 6 7 3 4 1020.7 - 0.0
29/07:30am 13.6 12.4 9.7 77 2.0 W 6 7 3 4 1020.3 - 0.0
29/07:00am 13.3 11.9 9.4 77 2.0 W 7 9 4 5 1019.9 - 0.0
29/06:30am 13.1 12.5 9.1 77 2.0 W 2 7 1 4 1019.7 - 0.0
29/06:00am 13.6 12.4 9.5 76 2.1 W 6 7 3 4 1019.4 1019.3 0.0
29/05:30am 14.0 12.3 9.9 76 2.1 WNW 9 11 5 6 1019.4 - 0.0
29/05:00am 14.1 12.4 10.0 76 2.1 W 9 11 5 6 1019.4 - 0.0
29/04:30am 14.4 12.9 10.4 77 2.1 WSW 9 11 5 6 1019.4 - 0.0
29/04:00am 13.8 11.7 9.7 76 2.1 WSW 11 13 6 7 1019.5 - 0.0
29/03:30am 14.1 12.5 10.2 77 2.0 W 9 9 5 5 1019.4 - 0.0
29/03:00am 14.0 12.4 10.1 77 2.0 S 9 11 5 6 1019.4 1019.3 0.0
29/02:30am 14.6 12.3 10.6 77 2.1 SSE 13 15 7 8 1019.5 - 0.0
29/02:00am 14.1 11.6 9.8 75 2.2 S 13 15 7 8 1019.6 - 0.0
29/01:30am 14.5 12.5 10.3 76 2.2 SW 11 13 6 7 1019.9 - 0.0
29/01:00am 14.6 12.7 10.4 76 2.2 SSW 11 11 6 6 1020.0 - 0.0
29/12:30am 14.2 12.1 9.9 75 2.2 S 11 13 6 7 1020.3 - 0.0
29/12:00am 14.5 12.2 10.3 76 2.2 S 13 15 7 8 1020.3 1020.2 0.0
 
Date/Time
WST
Temp
°C
App
Temp
°C
Dew
Point
Rel
Hum
%
Delta-T
°C
Wind Press
QNH
hPa
Press
MSL
hPa
Rain
since 9 am
mm
Dir
 
Spd
km/h
Gust
km/h
Spd
kts
Gust
kts
28/11:30pm 14.9 12.9 10.3 74 2.4 S 11 13 6 7 1020.5 - 0.0
28/11:00pm 15.3 13.8 10.5 73 2.5 SW 9 9 5 5 1020.7 - 0.0
28/10:30pm 15.5 14.1 10.8 73 2.5 SSW 9 11 5 6 1020.8 - 0.0
28/10:00pm 15.8 14.0 10.7 71 2.7 SSW 11 13 6 7 1021.0 - 0.0
28/09:30pm 16.1 14.3 10.8 71 2.8 SSW 11 13 6 7 1020.8 - 0.0
28/09:00pm 16.6 15.2 10.8 68 3.1 SW 9 11 5 6 1020.8 1020.7 0.0
28/08:30pm 17.5 17.6 11.4 67 3.3 NW 2 7 1 4 1020.7 - 0.0
28/08:00pm 19.1 18.3 11.6 62 4.1 NW 7 7 4 4 1020.6 - 0.0
28/07:30pm 18.7 17.8 12.6 67 3.4 N 9 9 5 5 1020.2 - 0.0
28/07:00pm 18.5 16.8 12.6 68 3.3 N 13 15 7 8 1019.9 - 0.0
28/06:30pm 19.3 18.0 12.5 64 3.8 N 11 13 6 7 1019.8 - 0.0
28/06:00pm 20.8 19.3 12.0 57 4.9 N 11 13 6 7 1019.5 1019.4 0.0
28/05:30pm 22.5 19.4 10.4 46 6.6 NNE 17 22 9 12 1019.5 - 0.0
28/05:00pm 23.6 20.2 9.3 40 7.7 NNE 17 22 9 12 1019.4 - 0.0
28/04:30pm 24.2 19.8 7.6 34 8.7 NNE 20 28 11 15 1019.3 - 0.0
28/04:00pm 24.5 20.4 8.6 36 8.5 NNE 20 26 11 14 1019.3 - 0.0
28/03:30pm 24.7 20.4 7.9 34 8.9 NNE 20 26 11 14 1019.2 - 0.0
28/03:00pm 24.9 21.3 11.9 44 7.4 NNE 22 26 12 14 1019.3 1019.2 0.0
28/02:30pm 24.8 20.8 10.6 40 7.9 NNE 22 30 12 16 1019.6 - 0.0
28/02:00pm 24.4 20.5 9.5 38 8.1 N 20 22 11 12 1019.8 - 0.0
28/01:30pm 24.2 19.8 8.9 37 8.2 N 22 26 12 14 1019.9 - 0.0
28/01:00pm 24.4 19.9 8.7 36 8.4 N 22 26 12 14 1020.3 - 0.0
28/12:30pm 23.7 19.4 9.5 40 7.7 N 22 30 12 16 1020.6 - 0.0
28/12:00pm 23.2 19.1 8.5 39 7.8 N 20 26 11 14 1021.2 1021.1 0.0
28/11:30am 23.2 19.3 9.5 41 7.4 N 20 24 11 13 1021.6 - 0.0
28/11:00am 23.6 19.7 9.3 40 7.7 N 20 26 11 14 1021.9 - 0.0

Other Formats:

Comma delimited format used in spreadsheet applications
http://www.bom.gov.au/fwo/IDW60801/IDW60801.94302.axf

JavaScript Object Notation format (JSON) in row-major order
http://www.bom.gov.au/fwo/IDW60801/IDW60801.94302.json